Time;durP1;ratioP1;P1;durP2;ratioP2;P2;SDS_P1;SDS_P2;PMS_P1;PMS_P2;Temp;Humidity;BMP_temperature;BMP_pressure;BME280_temperature;BME280_humidity;BME280_pressure;Samples;Min_cycle;Max_cycle;Signal;HPM_P1;HPM_P2
2022/04/11 00:00:08;;;;;;;1.80;1.00;;;-0.90;1.40;;;-0.20;100.00;95734.56;649651;216;31566;-72
2022/04/11 00:02:49;;;;;;;1.15;0.98;;;-0.80;1.40;;;-0.15;100.00;95733.52;645250;216;31806;-72
2022/04/11 00:05:31;;;;;;;1.10;1.00;;;-0.70;1.40;;;-0.19;100.00;95728.11;618933;222;31976;-73
2022/04/11 00:08:13;;;;;;;1.20;0.80;;;-0.70;1.40;;;-0.15;100.00;95728.09;638184;212;31687;-71
2022/04/11 00:10:57;;;;;;;1.60;1.02;;;-0.80;1.40;;;-0.22;100.00;95722.63;648430;216;31524;-71
2022/04/11 00:13:39;;;;;;;0.68;0.68;;;-0.80;1.40;;;-0.19;100.00;95717.16;649900;212;31650;-72
2022/04/11 00:16:21;;;;;;;0.60;0.60;;;-0.90;1.40;;;-0.21;100.00;95716.20;648135;212;31709;-72
2022/04/11 00:19:03;;;;;;;1.12;1.12;;;-0.80;1.40;;;-0.22;100.00;95710.59;647082;216;31593;-72
2022/04/11 00:21:44;;;;;;;1.10;1.00;;;-0.80;1.40;;;-0.24;100.00;95712.55;651982;212;31563;-72
2022/04/11 00:24:26;;;;;;;1.50;0.90;;;-0.80;1.40;;;-0.20;100.00;95709.67;647017;216;31949;-71
2022/04/11 00:27:08;;;;;;;1.10;1.00;;;-0.70;1.40;;;-0.13;100.00;95711.08;647635;216;31519;-71
2022/04/11 00:29:49;;;;;;;1.77;1.67;;;-0.70;1.40;;;-0.14;100.00;95708.94;651810;212;31528;-73
2022/04/11 00:32:34;;;;;;;1.37;1.27;;;-0.70;1.40;;;-0.13;100.00;95712.16;623524;222;32587;-71
2022/04/11 00:35:51;;;;;;;1.40;1.02;;;-0.70;1.40;;;-0.16;100.00;95708.19;652513;216;31601;-73
2022/04/11 00:38:33;;;;;;;2.20;1.00;;;-0.80;1.40;;;-0.19;100.00;95708.37;651765;216;31522;-73
2022/04/11 00:41:17;;;;;;;1.23;0.62;;;-0.80;1.40;;;-0.19;100.00;95707.19;647712;216;32122;-73
2022/04/11 00:43:59;;;;;;;1.40;0.77;;;-0.80;1.40;;;-0.18;100.00;95707.73;653078;212;32087;-72
2022/04/11 00:49:15;;;;;;;2.03;1.20;;;-0.70;1.40;;;-0.12;100.00;95706.48;646188;216;31976;-73
2022/04/11 00:51:57;;;;;;;1.50;1.30;;;-0.70;1.40;;;-0.15;100.00;95705.03;653397;216;31594;-72
2022/04/11 00:54:38;;;;;;;1.77;1.42;;;-0.70;1.40;;;-0.15;100.00;95710.41;624425;225;31924;-73
2022/04/11 00:57:20;;;;;;;1.00;0.90;;;-0.70;1.40;;;-0.18;100.00;95708.52;648746;216;31621;-71
2022/04/11 01:00:02;;;;;;;0.82;0.82;;;-0.70;1.40;;;-0.18;100.00;95710.97;622394;226;31888;-73
2022/04/11 01:02:43;;;;;;;1.15;0.90;;;-0.80;1.40;;;-0.16;100.00;95707.88;646774;216;31590;-71
2022/04/11 01:05:28;;;;;;;0.93;0.60;;;-0.70;1.40;;;-0.16;100.00;95706.07;647254;216;31585;-73
2022/04/11 01:08:10;;;;;;;1.40;1.10;;;-0.70;1.40;;;-0.24;100.00;95704.25;640913;216;31739;-72
2022/04/11 01:10:53;;;;;;;0.82;0.82;;;-0.90;1.40;;;-0.23;100.00;95702.88;646144;216;31864;-73
2022/04/11 01:13:34;;;;;;;1.20;1.10;;;-0.80;1.40;;;-0.23;100.00;95704.00;646209;216;31686;-73
2022/04/11 01:16:16;;;;;;;0.90;0.50;;;-0.80;1.40;;;-0.23;100.00;95701.77;646809;216;31537;-72
2022/04/11 01:18:58;;;;;;;1.00;0.88;;;-0.80;1.40;;;-0.21;100.00;95701.66;651190;216;31555;-73
2022/04/11 01:21:39;;;;;;;1.20;1.10;;;-0.80;1.40;;;-0.21;100.00;95701.02;648577;212;31530;-73
2022/04/11 01:24:21;;;;;;;2.50;1.58;;;-0.80;1.40;;;-0.23;100.00;95702.03;646324;216;31592;-72
2022/04/11 01:27:03;;;;;;;1.42;1.33;;;-0.90;1.40;;;-0.22;100.00;95702.97;645998;216;31524;-72
2022/04/11 01:29:45;;;;;;;1.10;1.00;;;-0.80;1.40;;;-0.17;100.00;95704.13;647091;212;31574;-73
2022/04/11 01:32:28;;;;;;;0.80;0.62;;;-0.80;1.40;;;-0.23;100.00;95706.18;650709;212;31521;-73
2022/04/11 01:35:52;;;;;;;1.30;1.08;;;-0.90;1.40;;;-0.25;100.00;95705.34;652469;212;31691;-71
2022/04/11 01:38:34;;;;;;;1.50;0.90;;;-0.80;1.40;;;-0.26;100.00;95701.70;645949;212;31637;-72
2022/04/11 01:41:17;;;;;;;0.88;0.77;;;-0.90;1.40;;;-0.30;100.00;95702.34;651562;212;31508;-74
2022/04/11 01:43:59;;;;;;;0.70;0.70;;;-1.00;1.40;;;-0.20;100.00;95700.94;650585;212;31585;-73
2022/04/11 01:46:46;;;;;;;1.23;1.12;;;-0.90;1.40;;;-0.21;100.00;95701.19;617902;225;31837;-73
2022/04/11 01:49:25;;;;;;;0.95;0.85;;;-0.80;1.40;;;-0.17;100.00;95703.38;649745;216;31510;-72
2022/04/11 01:52:12;;;;;;;0.50;0.50;;;-0.80;1.40;;;-0.21;100.00;95703.20;649069;212;31522;-73
2022/04/11 01:54:54;;;;;;;2.87;0.80;;;-0.80;1.40;;;-0.19;100.00;95704.58;624542;222;32032;-72
2022/04/11 01:57:35;;;;;;;1.00;0.95;;;-0.80;1.40;;;-0.17;100.00;95703.05;629720;221;31723;-73
2022/04/11 02:00:17;;;;;;;2.90;1.60;;;-0.80;1.40;;;-0.11;100.00;95695.78;620154;222;31990;-73
2022/04/11 02:02:59;;;;;;;1.20;1.10;;;-0.70;1.40;;;-0.05;100.00;95696.19;649308;216;31548;-73
2022/04/11 02:05:44;;;;;;;6.50;1.08;;;-0.70;1.40;;;-0.04;100.00;95697.50;649982;216;31550;-72
2022/04/11 02:08:25;;;;;;;0.70;0.70;;;-0.60;1.40;;;0.02;100.00;95692.53;646504;216;31525;-71
2022/04/11 02:11:08;;;;;;;1.30;0.77;;;-0.60;1.40;;;-0.09;100.00;95683.91;646804;216;31516;-73
2022/04/11 02:13:49;;;;;;;1.30;1.20;;;-0.70;1.40;;;-0.11;100.00;95683.91;650398;212;31523;-72
2022/04/11 02:16:33;;;;;;;1.70;1.10;;;-0.70;1.40;;;-0.03;100.00;95677.16;650261;216;31536;-72
2022/04/11 02:19:15;;;;;;;2.47;1.20;;;-0.70;1.40;;;0.02;100.00;95679.91;646364;216;31493;-72
2022/04/11 02:21:57;;;;;;;1.05;0.95;;;-0.70;1.40;;;0.03;100.00;95676.52;619578;222;31868;-72
2022/04/11 02:24:43;;;;;;;0.82;0.65;;;-0.70;1.40;;;0.07;100.00;95676.82;650306;216;42464;-72
2022/04/11 02:27:25;;;;;;;0.95;0.65;;;-0.60;1.40;;;0.09;100.00;95670.25;646849;216;31662;-73
2022/04/11 02:30:11;;;;;;;1.98;0.90;;;-0.60;1.40;;;0.07;100.00;95669.27;623910;226;32001;-73
2022/04/11 02:32:53;;;;;;;0.80;0.80;;;-0.50;1.40;;;0.07;100.00;95661.53;650654;216;31553;-71
2022/04/11 02:35:51;;;;;;;1.60;1.50;;;-0.60;1.40;;;0.07;100.00;95660.77;646251;212;31861;-71
2022/04/11 02:38:33;;;;;;;1.60;1.00;;;-0.60;1.40;;;0.05;100.00;95663.40;647748;216;31520;-72
2022/04/11 02:41:14;;;;;;;1.05;1.05;;;-0.60;1.40;;;0.03;100.00;95663.89;646641;212;31696;-72
2022/04/11 02:43:59;;;;;;;0.50;0.47;;;-0.60;1.40;;;0.02;100.00;95660.03;647432;212;31580;-72
2022/04/11 02:46:44;;;;;;;0.93;0.70;;;-0.70;1.40;;;-0.03;100.00;95657.55;650130;216;31551;-73
2022/04/11 02:49:28;;;;;;;1.58;1.33;;;-0.80;1.40;;;-0.08;100.00;95654.93;647641;216;31529;-72
2022/04/11 02:52:09;;;;;;;1.00;1.00;;;-0.80;1.40;;;-0.12;100.00;95653.98;651305;216;31604;-72
2022/04/11 02:54:51;;;;;;;0.60;0.60;;;-0.80;1.40;;;-0.17;100.00;95655.38;646650;216;31521;-73
2022/04/11 02:57:33;;;;;;;1.00;0.90;;;-0.80;1.40;;;-0.22;100.00;95654.17;646473;216;31630;-72
2022/04/11 03:00:15;;;;;;;0.70;0.70;;;-0.80;1.40;;;-0.24;100.00;95649.01;646175;216;31516;-73
2022/04/11 03:03:00;;;;;;;0.80;0.80;;;-0.90;1.40;;;-0.31;100.00;95640.86;650011;216;31521;-72
2022/04/11 03:05:41;;;;;;;0.90;0.90;;;-0.90;1.40;;;-0.36;100.00;95640.16;650728;212;31611;-73
2022/04/11 03:08:23;;;;;;;0.73;0.73;;;-1.00;1.40;;;-0.35;100.00;95643.44;649331;216;31528;-72
2022/04/11 03:11:05;;;;;;;1.23;0.90;;;-0.90;1.40;;;-0.29;100.00;95652.52;645620;216;31581;-72
2022/04/11 03:13:48;;;;;;;4.10;1.10;;;-0.90;1.40;;;-0.27;100.00;95648.08;649599;212;32119;-71
2022/04/11 03:16:31;;;;;;;1.50;1.00;;;-0.90;1.40;;;-0.36;100.00;95650.77;650570;212;31455;-72
2022/04/11 03:19:13;;;;;;;2.42;0.93;;;-0.90;1.40;;;-0.37;100.00;95647.69;647821;216;31626;-72
2022/04/11 03:21:58;;;;;;;0.50;0.50;;;-0.90;1.40;;;-0.33;100.00;95644.86;651563;216;31509;-72
2022/04/11 03:24:39;;;;;;;0.60;0.50;;;-0.80;1.40;;;-0.36;100.00;95637.66;647386;216;31521;-73
2022/04/11 03:27:21;;;;;;;0.80;0.80;;;-0.80;1.40;;;-0.37;100.00;95632.52;649364;212;31651;-73
2022/04/11 03:30:03;;;;;;;0.60;0.50;;;-0.90;1.40;;;-0.35;100.00;95635.80;649124;216;31615;-71
2022/04/11 03:32:44;;;;;;;0.55;0.55;;;-0.90;1.40;;;-0.29;100.00;95628.91;647849;212;32021;-73
2022/04/11 03:35:51;;;;;;;1.45;0.77;;;-0.90;1.40;;;-0.19;100.00;95632.38;650973;212;31577;-73
2022/04/11 03:38:34;;;;;;;0.70;0.70;;;-0.90;1.40;;;-0.15;100.00;95630.80;646416;212;31545;-73
2022/04/11 03:41:18;;;;;;;0.50;0.50;;;-0.80;1.40;;;-0.17;100.00;95636.25;648120;212;31867;-73
2022/04/11 03:44:00;;;;;;;1.30;1.20;;;-0.80;1.40;;;-0.19;100.00;95631.75;651997;212;31470;-74
2022/04/11 03:46:43;;;;;;;0.50;0.50;;;-0.80;1.40;;;-0.19;100.00;95633.93;650439;212;31479;-74
2022/04/11 03:49:28;;;;;;;0.70;0.70;;;-0.90;1.40;;;-0.27;100.00;95629.70;648255;212;31593;-73
2022/04/11 03:52:10;;;;;;;1.80;0.70;;;-1.00;1.40;;;-0.34;100.00;95623.86;646913;212;31955;-73
2022/04/11 03:54:53;;;;;;;1.30;0.80;;;-1.10;1.40;;;-0.35;100.00;95619.03;626372;222;31838;-73
2022/04/11 03:57:38;;;;;;;0.80;0.80;;;-1.20;1.40;;;-0.36;100.00;95618.75;648536;216;31548;-72
2022/04/11 04:00:20;;;;;;;1.40;1.00;;;-1.10;1.40;;;-0.31;100.00;95617.63;646886;212;31638;-72
2022/04/11 04:03:07;;;;;;;0.60;0.50;;;-1.10;1.40;;;-0.30;100.00;95606.36;645977;212;31474;-73
2022/04/11 04:05:51;;;;;;;0.77;0.73;;;-1.00;1.40;;;-0.32;100.00;95601.42;626367;222;32362;-74
2022/04/11 04:08:39;;;;;;;1.40;1.30;;;-1.00;1.40;;;-0.30;100.00;95593.80;639671;216;31795;-74
2022/04/11 04:11:26;;;;;;;1.77;1.08;;;-1.00;1.40;;;-0.26;100.00;95586.09;651720;212;31521;-74
2022/04/11 04:14:08;;;;;;;2.00;1.30;;;-1.00;1.40;;;-0.31;100.00;95588.71;650448;216;31597;-73
2022/04/11 04:16:54;;;;;;;1.50;0.90;;;-1.10;1.40;;;-0.35;100.00;95588.89;648235;216;31563;-74
2022/04/11 04:19:36;;;;;;;2.65;1.65;;;-1.20;1.40;;;-0.38;100.00;95587.67;645728;216;31491;-73
2022/04/11 04:22:20;;;;;;;1.60;0.73;;;-1.20;1.40;;;-0.39;100.00;95588.77;648537;216;31619;-73
2022/04/11 04:25:02;;;;;;;0.90;0.70;;;-1.30;1.40;;;-0.34;100.00;95585.50;651781;212;31505;-73
2022/04/11 04:27:43;;;;;;;1.00;0.70;;;-1.30;1.40;;;-0.39;100.00;95582.74;651457;216;31509;-73
2022/04/11 04:30:30;;;;;;;1.80;0.80;;;-1.30;1.40;;;-0.44;100.00;95580.09;647746;212;31532;-73
2022/04/11 04:35:57;;;;;;;1.30;1.20;;;-1.40;1.40;;;-0.56;100.00;95584.36;649784;212;31579;-73
2022/04/11 04:38:41;;;;;;;1.75;0.52;;;-1.60;1.40;;;-0.57;100.00;95583.70;643214;215;31556;-72
2022/04/11 04:41:23;;;;;;;1.20;0.50;;;-1.60;1.40;;;-0.64;100.00;95586.80;649442;212;31480;-75
2022/04/11 04:44:06;;;;;;;0.70;0.70;;;-1.70;1.40;;;-0.63;100.00;95575.53;648546;216;32156;-73
2022/04/11 04:46:48;;;;;;;1.02;0.75;;;-1.70;1.40;;;-0.64;100.00;95575.72;647710;215;31525;-73
2022/04/11 04:49:37;;;;;;;1.20;0.70;;;-1.70;1.40;;;-0.61;100.00;95580.49;619095;226;31879;-73
2022/04/11 04:52:19;;;;;;;1.00;0.80;;;-1.60;1.40;;;-0.51;100.00;95577.16;647441;212;31500;-74
2022/04/11 04:55:02;;;;;;;0.90;0.70;;;-1.50;1.40;;;-0.43;100.00;95571.91;651275;216;32198;-74
2022/04/11 04:57:46;;;;;;;1.10;1.00;;;-1.40;1.40;;;-0.32;100.00;95568.40;648066;216;31636;-72
2022/04/11 05:03:08;;;;;;;0.60;0.57;;;-1.20;1.40;;;-0.16;100.00;95573.56;647377;212;31612;-74
2022/04/11 05:06:29;;;;;;;1.08;0.77;;;-1.20;1.40;;;-0.14;100.00;95571.16;622449;222;31951;-74
2022/04/11 05:09:30;;;;;;;1.05;0.50;;;-1.20;1.40;;;-0.18;100.00;95569.27;633003;216;31979;-75
2022/04/11 05:12:22;;;;;;;1.00;0.70;;;-1.30;1.40;;;-0.14;100.00;95569.56;649932;212;31538;-73
2022/04/11 05:15:07;;;;;;;0.85;0.82;;;-1.30;1.40;;;-0.16;100.00;95565.03;644151;213;31715;-74
2022/04/11 05:17:58;;;;;;;1.48;0.98;;;-1.20;1.40;;;-0.09;100.00;95560.97;653526;216;31471;-73
2022/04/11 05:20:42;;;;;;;0.60;0.57;;;-1.10;1.40;;;0.03;100.00;95566.48;648222;212;31498;-75
2022/04/11 05:23:24;;;;;;;2.15;1.30;;;-1.00;1.40;;;0.13;100.00;95562.73;647673;216;31554;-75
2022/04/11 05:26:11;;;;;;;2.10;1.10;;;-0.90;1.40;;;0.28;100.00;95559.27;620162;226;32778;-74
2022/04/11 05:28:57;;;;;;;1.17;1.08;;;-0.70;1.40;;;0.40;100.00;95556.81;644372;216;31665;-74
2022/04/11 05:31:39;;;;;;;1.30;0.98;;;-0.70;1.40;;;0.59;100.00;95554.45;649695;216;31541;-72
2022/04/11 05:35:51;;;;;;;0.90;0.90;;;-0.40;1.40;;;0.80;100.00;95553.73;645801;212;31541;-74
2022/04/11 05:38:33;;;;;;;0.80;0.80;;;-0.30;1.40;;;0.88;100.00;95553.50;652572;216;31494;-73
2022/04/11 05:41:18;;;;;;;0.60;0.60;;;0.00;1.40;;;1.13;100.00;95555.30;625644;226;32155;-74
2022/04/11 05:44:16;;;;;;;1.90;1.05;;;0.20;1.40;;;1.30;100.00;95554.76;648796;216;32099;-74
2022/04/11 05:47:05;;;;;;;0.80;0.80;;;0.40;1.40;;;1.57;100.00;95561.20;621739;226;31872;-74
2022/04/11 05:49:54;;;;;;;0.90;0.90;;;0.50;1.40;;;1.62;100.00;95565.70;624260;222;32006;-74
2022/04/11 05:52:46;;;;;;;1.40;1.30;;;0.50;1.40;;;1.65;100.00;95565.06;625220;222;31987;-74
2022/04/11 05:55:34;;;;;;;0.70;0.70;;;0.50;1.40;;;1.91;100.00;95563.66;649694;212;42117;-74
2022/04/11 05:58:26;;;;;;;1.60;1.05;;;0.70;1.40;;;2.06;100.00;95568.47;650242;212;31601;-74
2022/04/11 06:01:18;;;;;;;1.65;1.50;;;0.70;1.40;;;1.76;100.00;95565.56;653757;212;42220;-73
2022/04/11 06:04:13;;;;;;;1.00;0.60;;;0.50;1.40;;;1.74;100.00;95567.30;625379;222;31824;-73
2022/04/11 06:07:06;;;;;;;0.90;0.85;;;0.60;1.40;;;1.95;100.00;95572.69;617315;222;32198;-75
2022/04/11 06:10:02;;;;;;;0.80;0.80;;;0.70;1.40;;;1.91;100.00;95572.37;645425;214;31682;-74
2022/04/11 06:12:50;;;;;;;0.90;0.80;;;0.60;1.40;;;1.95;100.00;95567.61;650879;212;31576;-74
2022/04/11 06:15:34;;;;;;;1.10;0.80;;;0.70;1.40;;;2.12;100.00;95571.12;648831;216;31543;-74
2022/04/11 06:18:16;;;;;;;0.80;0.80;;;0.90;1.40;;;1.62;100.00;95578.85;652323;216;31524;-74
2022/04/11 06:21:02;;;;;;;0.80;0.80;;;0.90;1.40;;;1.64;100.00;95583.33;623231;222;31953;-75
2022/04/11 06:23:50;;;;;;;1.80;1.12;;;1.10;1.40;;;1.91;100.00;95578.35;624137;222;31855;-74
2022/04/11 06:26:31;;;;;;;1.40;1.25;;;1.20;1.40;;;2.04;100.00;95581.73;647553;212;31511;-75
2022/04/11 06:29:17;;;;;;;0.70;0.70;;;1.30;1.40;;;2.05;100.00;95584.08;650507;216;31632;-75
2022/04/11 06:32:04;;;;;;;1.30;1.10;;;1.30;1.40;;;2.28;100.00;95585.78;646860;212;32172;-76
2022/04/11 06:35:51;;;;;;;1.45;1.02;;;1.50;1.40;;;2.50;100.00;95587.58;650830;216;42200;-75
2022/04/11 06:38:32;;;;;;;1.00;0.93;;;1.70;1.40;;;2.45;100.00;95591.73;649833;212;31541;-75
2022/04/11 06:41:20;;;;;;;1.20;0.77;;;1.70;1.40;;;2.37;100.00;95591.25;647646;216;31537;-73
2022/04/11 06:44:06;;;;;;;0.90;0.90;;;1.70;1.40;;;2.46;100.00;95589.83;646443;212;31504;-75
2022/04/11 06:46:50;;;;;;;3.12;1.20;;;1.80;1.40;;;2.55;100.00;95585.53;648492;216;31519;-76
2022/04/11 06:49:32;;;;;;;1.00;1.00;;;1.90;1.40;;;2.80;100.00;95578.63;645836;216;31626;-74
2022/04/11 06:52:13;;;;;;;1.50;1.30;;;2.10;1.40;;;2.92;100.00;95575.00;649693;216;32499;-75
2022/04/11 06:54:56;;;;;;;0.70;0.70;;;2.30;1.40;;;2.87;100.00;95578.70;622116;226;32093;-75
2022/04/11 06:57:37;;;;;;;0.80;0.60;;;2.40;1.40;;;3.02;100.00;95572.55;649781;216;31990;-74
2022/04/11 07:00:24;;;;;;;3.10;0.90;;;2.60;1.40;;;3.22;100.00;95566.22;645868;216;32144;-75
2022/04/11 07:03:12;;;;;;;0.82;0.60;;;2.80;1.40;;;3.38;100.00;95567.88;648965;212;31554;-75
2022/04/11 07:05:54;;;;;;;0.80;0.80;;;2.90;1.40;;;3.63;100.00;95566.48;650185;216;31502;-74
2022/04/11 07:08:36;;;;;;;0.62;0.62;;;3.10;1.40;;;3.54;100.00;95572.69;637020;212;31677;-75
2022/04/11 07:11:18;;;;;;;2.20;1.00;;;3.10;1.40;;;3.82;100.00;95575.05;645398;216;31517;-75
2022/04/11 07:13:59;;;;;;;0.80;0.62;;;3.40;1.40;;;3.98;100.00;95573.72;649466;212;31495;-75
2022/04/11 07:16:41;;;;;;;1.50;0.90;;;3.50;1.40;;;4.05;100.00;95571.61;647558;212;31513;-75
2022/04/11 07:19:32;;;;;;;1.30;0.90;;;3.60;1.40;;;4.13;100.00;95572.05;646057;216;31851;-73
2022/04/11 07:22:16;;;;;;;2.47;1.10;;;3.80;1.40;;;4.30;100.00;95577.53;649565;216;32122;-75
2022/04/11 07:24:57;;;;;;;1.17;1.08;;;3.90;1.40;;;4.45;100.00;95576.41;648175;216;32026;-75
2022/04/11 07:27:39;;;;;;;0.70;0.70;;;4.00;1.40;;;4.71;100.00;95579.39;647444;212;31552;-77
2022/04/11 07:30:26;;;;;;;0.70;0.60;;;4.30;1.40;;;4.88;100.00;95580.33;649842;216;31883;-73
2022/04/11 07:35:51;;;;;;;0.93;0.70;;;4.60;1.40;;;5.05;100.00;95574.05;646199;216;32017;-73
2022/04/11 07:41:07;;;;;;;1.12;0.70;;;4.80;1.40;;;5.59;100.00;95576.73;650158;216;31493;-73
2022/04/11 07:43:50;;;;;;;0.60;0.50;;;5.20;1.40;;;5.57;100.00;95580.95;649164;216;31519;-73
2022/04/11 07:46:36;;;;;;;1.40;1.30;;;5.10;1.40;;;5.56;100.00;95583.27;620556;226;32093;-73
2022/04/11 07:49:19;;;;;;;1.10;1.00;;;5.10;1.40;;;5.65;100.00;95582.16;648567;216;31538;-75
2022/04/11 07:52:03;;;;;;;2.33;1.23;;;5.20;1.40;;;5.82;100.00;95578.24;649980;216;31605;-74
2022/04/11 07:54:45;;;;;;;0.80;0.70;;;5.50;1.40;;;6.32;100.00;95579.26;636260;222;31687;-75
2022/04/11 07:57:27;;;;;;;1.10;1.00;;;6.00;1.40;;;6.70;100.00;95579.11;650078;212;31482;-74
2022/04/11 08:00:11;;;;;;;1.10;0.90;;;6.40;1.40;;;6.66;99.60;95583.95;649600;216;31506;-75
2022/04/11 08:03:00;;;;;;;0.80;0.80;;;6.30;1.40;;;6.96;100.00;95581.70;648799;212;42143;-75
2022/04/11 08:05:51;;;;;;;1.00;0.90;;;6.70;1.40;;;7.68;100.00;95584.38;648029;212;31524;-75
2022/04/11 08:08:33;;;;;;;1.10;0.90;;;7.10;1.40;;;7.52;99.25;95583.50;612285;226;32173;-76
2022/04/11 08:11:15;;;;;;;0.70;0.70;;;6.80;1.40;;;6.79;92.86;95589.52;651407;212;31972;-74
2022/04/11 08:13:57;;;;;;;1.25;1.00;;;6.40;1.40;;;7.15;96.80;95584.20;645903;216;31638;-76
2022/04/11 08:16:39;;;;;;;1.10;0.70;;;6.80;1.40;;;7.09;93.88;95586.72;647630;212;31725;-75
2022/04/11 08:19:23;;;;;;;1.15;0.80;;;6.70;1.40;;;6.86;93.97;95577.52;651745;212;31588;-76
2022/04/11 08:22:06;;;;;;;1.50;0.97;;;6.50;1.40;;;7.25;95.54;95572.48;647798;216;32052;-75
2022/04/11 08:24:48;;;;;;;0.80;0.80;;;6.90;1.40;;;7.56;96.02;95572.84;647002;213;31588;-75
2022/04/11 08:27:30;;;;;;;0.90;0.70;;;7.20;1.40;;;7.22;90.68;95567.75;621978;222;31920;-77
2022/04/11 08:30:14;;;;;;;1.30;1.20;;;6.80;1.40;;;7.03;91.79;95568.18;623480;222;42780;-73
2022/04/11 08:32:56;;;;;;;0.80;0.80;;;6.60;1.40;;;7.23;97.08;95555.73;650990;216;31613;-74
2022/04/11 08:35:54;;;;;;;1.23;0.80;;;7.00;1.40;;;7.73;94.40;95555.67;650420;216;31465;-74
2022/04/11 08:38:41;;;;;;;1.40;1.20;;;7.40;1.40;;;8.14;91.83;95557.16;621737;226;31931;-75
2022/04/11 08:41:25;;;;;;;1.10;1.00;;;7.80;1.40;;;8.39;88.92;95554.53;646548;212;31644;-74
2022/04/11 08:44:07;;;;;;;1.40;1.00;;;7.70;1.40;;;7.95;86.01;95552.79;646902;212;31538;-74
2022/04/11 08:46:52;;;;;;;1.40;1.20;;;7.60;1.40;;;7.99;88.19;95554.27;644409;212;31870;-75
2022/04/11 08:49:33;;;;;;;0.80;0.80;;;7.60;1.40;;;8.23;86.64;95554.88;646921;212;31553;-75
2022/04/11 08:52:15;;;;;;;1.50;0.90;;;8.00;1.40;;;8.62;86.06;95549.58;650000;216;31536;-74
2022/04/11 08:54:57;;;;;;;1.37;0.90;;;8.00;1.40;;;8.48;88.25;95550.53;646954;216;32756;-75
2022/04/11 08:57:39;;;;;;;1.40;1.20;;;8.20;1.40;;;8.74;83.56;95542.58;650181;216;31511;-75
2022/04/11 09:00:20;;;;;;;0.80;0.77;;;8.50;1.40;;;9.85;82.95;95542.11;646461;212;31595;-76
2022/04/11 09:03:03;;;;;;;2.00;0.90;;;9.50;1.40;;;10.87;75.31;95533.85;646391;212;31704;-74
2022/04/11 09:06:02;;;;;;;2.10;1.40;;;12.00;1.40;;;10.33;66.49;95537.86;646312;216;31881;-76
2022/04/11 09:08:59;;;;;;;1.30;1.10;;;11.20;1.40;;;10.96;67.82;95529.92;612646;222;32086;-74
2022/04/11 09:11:40;;;;;;;1.70;1.20;;;13.10;1.40;;;12.19;65.21;95528.32;647777;212;42168;-74
2022/04/11 09:14:22;;;;;;;4.00;1.20;;;14.90;1.40;;;12.74;58.69;95535.27;647307;216;31550;-75
2022/04/11 09:17:04;;;;;;;1.40;1.10;;;14.60;1.40;;;14.79;64.45;95521.95;645938;216;31523;-74
2022/04/11 09:19:46;;;;;;;1.37;1.10;;;17.10;1.40;;;15.78;51.04;95525.13;647542;216;31367;-77
2022/04/11 09:22:29;;;;;;;2.47;1.20;;;17.70;1.40;;;15.21;47.30;95530.66;618974;226;31901;-74
2022/04/11 09:25:12;;;;;;;2.25;1.02;;;13.70;1.40;;;14.29;52.83;95535.63;647340;216;31568;-75
2022/04/11 09:28:06;;;;;;;1.45;1.35;;;16.30;1.40;;;14.77;48.17;95536.98;646737;216;31584;-75
2022/04/11 09:30:49;;;;;;;1.73;1.45;;;15.40;1.40;;;15.74;51.62;95535.34;646741;216;34563;-75
2022/04/11 09:35:57;;;;;;;1.50;1.00;;;14.50;1.40;;;14.29;48.54;95541.09;646565;216;31764;-75
2022/04/11 09:38:45;;;;;;;1.30;1.20;;;15.40;1.40;;;15.66;49.28;95532.98;619288;226;31947;-74
2022/04/11 09:41:34;;;;;;;1.30;1.20;;;16.50;1.40;;;14.78;45.50;95533.70;647736;216;31698;-75
2022/04/11 09:44:34;;;;;;;0.98;0.88;;;15.80;1.40;;;18.60;47.63;95521.66;648007;212;31573;-74
2022/04/11 09:47:16;;;;;;;2.30;1.10;;;19.20;1.40;;;15.04;44.73;95531.12;619831;226;32064;-74
2022/04/11 09:50:02;;;;;;;1.33;1.00;;;15.90;1.40;;;15.09;47.34;95526.83;646984;212;31560;-74
2022/04/11 09:52:44;;;;;;;3.00;1.05;;;16.00;1.40;;;15.62;44.80;95527.34;647236;212;31556;-75
2022/04/11 09:55:26;;;;;;;1.80;1.27;;;16.40;1.40;;;17.04;46.05;95523.62;619905;222;31833;-75
2022/04/11 09:58:08;;;;;;;1.30;1.00;;;18.20;1.40;;;15.11;43.12;95533.63;642674;217;31630;-76
2022/04/11 10:00:50;;;;;;;1.00;0.70;;;15.60;1.40;;;17.25;43.33;95520.81;646943;212;31596;-76
2022/04/11 10:03:31;;;;;;;1.25;0.82;;;17.70;1.40;;;18.70;39.23;95508.02;646640;212;31544;-74
2022/04/11 10:06:13;;;;;;;1.10;0.90;;;19.20;1.40;;;20.04;37.69;95503.77;647791;216;42221;-75
2022/04/11 10:08:54;;;;;;;1.40;1.00;;;18.80;1.40;;;17.60;38.42;95516.61;648342;216;31612;-75
2022/04/11 10:11:36;;;;;;;1.15;0.85;;;16.70;1.40;;;16.89;39.82;95513.86;647194;216;31619;-74
2022/04/11 10:14:26;;;;;;;1.77;1.00;;;17.40;1.40;;;19.14;36.69;95507.39;620274;222;32030;-75
2022/04/11 10:17:07;;;;;;;1.10;0.80;;;18.70;1.40;;;16.97;42.87;95508.12;647973;216;31496;-75
2022/04/11 10:19:53;;;;;;;0.88;0.80;;;18.10;1.40;;;18.90;36.15;95500.08;630796;222;31657;-75
2022/04/11 10:22:35;;;;;;;1.30;0.80;;;18.00;1.40;;;16.76;38.88;95504.30;647208;212;31500;-77
2022/04/11 10:25:16;;;;;;;1.30;0.80;;;16.80;1.40;;;14.79;39.70;95504.10;647202;216;31946;-75
2022/04/11 10:28:21;;;;;;;1.08;0.88;;;15.20;1.40;;;18.57;40.48;95487.97;647966;216;31525;-77
2022/04/11 10:31:10;;;;;;;1.20;1.10;;;19.90;1.40;;;21.58;36.14;95479.63;646564;216;31584;-74
2022/04/11 10:38:26;;;;;;;2.07;1.30;;;18.40;1.40;;;17.64;37.85;95489.23;643146;219;31746;-75
2022/04/11 10:41:08;;;;;;;1.33;1.23;;;17.30;1.40;;;16.80;38.78;95485.69;646141;212;31550;-75
2022/04/11 10:43:50;;;;;;;1.40;0.60;;;16.90;1.40;;;15.59;38.37;95480.05;647473;216;31566;-75
2022/04/11 10:46:35;;;;;;;3.20;1.35;;;16.60;1.40;;;16.62;38.27;95479.28;646438;216;31531;-75
2022/04/11 10:49:15;;;;;;;2.60;1.10;;;15.90;1.40;;;17.83;41.41;95464.48;646627;216;31541;-74
2022/04/11 10:52:32;;;;;;;1.50;0.80;;;19.00;1.40;;;21.64;35.79;95454.14;632149;222;31701;-75
2022/04/11 10:55:15;;;;;;;1.10;0.90;;;22.30;1.40;;;24.08;31.92;95448.41;646916;212;32138;-75
2022/04/11 10:58:03;;;;;;;2.42;1.08;;;23.30;1.40;;;24.09;32.54;95441.78;646154;216;31877;-74
2022/04/11 11:00:47;;;;;;;0.90;0.80;;;21.70;1.40;;;20.95;31.44;95453.66;647483;212;31573;-75
2022/04/11 11:03:29;;;;;;;1.50;1.10;;;19.20;1.40;;;21.13;32.51;95447.36;648139;216;31594;-76
2022/04/11 11:06:17;;;;;;;1.40;0.80;;;19.60;1.40;;;20.77;32.17;95450.01;647521;216;31513;-76
2022/04/11 11:08:58;;;;;;;2.42;1.00;;;20.30;1.40;;;19.02;33.66;95440.66;647703;212;42393;-75
2022/04/11 11:11:45;;;;;;;1.60;1.00;;;18.70;1.40;;;18.93;34.31;95439.28;618545;222;31865;-75
2022/04/11 11:14:39;;;;;;;1.77;0.88;;;16.90;1.40;;;19.98;37.25;95434.68;646946;216;31517;-76
2022/04/11 11:17:20;;;;;;;0.77;0.62;;;19.80;1.40;;;21.38;31.61;95430.66;646491;216;31518;-77
2022/04/11 11:20:04;;;;;;;1.80;0.75;;;19.80;1.40;;;21.67;30.11;95424.64;646725;216;31603;-76
2022/04/11 11:25:51;;;;;;;0.90;0.70;;;16.20;1.40;;;17.45;36.01;95433.47;646828;216;31997;-75
2022/04/11 11:28:42;;;;;;;1.80;1.20;;;17.40;1.40;;;18.10;35.87;95420.05;648697;212;31550;-77
2022/04/11 11:31:31;;;;;;;1.90;0.80;;;17.50;1.40;;;17.17;34.54;95427.29;648150;212;31613;-77
2022/04/11 11:35:54;;;;;;;1.70;0.80;;;16.30;1.40;;;20.62;31.75;95407.86;619346;222;33146;-75
2022/04/11 11:38:42;;;;;;;1.90;1.05;;;18.80;1.40;;;18.10;34.54;95409.06;647148;216;31560;-75
2022/04/11 11:41:26;;;;;;;1.10;1.00;;;17.40;1.40;;;17.38;35.48;95407.45;648033;216;31589;-76
2022/04/11 11:44:07;;;;;;;3.05;1.17;;;16.30;1.40;;;22.14;32.96;95396.73;647452;216;31498;-75
2022/04/11 11:49:23;;;;;;;1.27;1.00;;;23.50;1.40;;;27.21;27.46;95384.25;649016;212;31853;-74
2022/04/11 11:52:13;;;;;;;2.05;0.95;;;23.30;1.40;;;22.97;28.23;95391.45;620028;222;32092;-74
2022/04/11 11:57:33;;;;;;;1.60;1.00;;;20.90;1.40;;;21.58;31.72;95393.81;646261;216;42180;-77
2022/04/11 12:00:16;;;;;;;0.93;0.82;;;19.90;1.40;;;21.82;29.22;95394.88;620115;222;32008;-76
2022/04/11 12:05:51;;;;;;;0.73;0.73;;;22.10;1.40;;;23.46;27.35;95380.10;618049;222;31974;-75
2022/04/11 12:08:35;;;;;;;1.00;0.90;;;20.30;1.40;;;20.07;30.22;95377.89;646992;212;31549;-75
2022/04/11 12:11:18;;;;;;;2.95;0.80;;;18.50;1.40;;;24.12;25.83;95367.70;646024;216;31549;-75
2022/04/11 12:14:03;;;;;;;1.55;1.00;;;19.40;1.40;;;20.91;30.53;95377.41;618971;226;31884;-75